Terminal Aerodrome Forecast
Issued by NWS Corpus Christi, TX

Home | Current Version | Previous Version | Text Only | Print | Product List | Glossary On
Versions: 1 2 3 4 5 6 7 8 9 10 11 12 13 14 15 16
000
FTUS44 KCRP 262331
TAFVCT
TAF
KVCT 262331Z 2700/2724 10005KT P6SM SCT100 BKN250
     FM270700 36003KT P6SM FEW050 SCT150
     FM271200 01008KT P6SM SCT150 BKN250=

USA.gov is the U.S. government's official web portal to all federal, state and local government web resources and services.